sensor_id;sensor_type;location;lat;lon;timestamp;pressure;altitude;pressure_sealevel;temperature;humidity
67015;BME280;1033;52.560;13.374;2023-05-21T00:01:25;101492.81;;;14.88;93.04
67015;BME280;1033;52.560;13.374;2023-05-21T00:03:54;101488.03;;;14.77;93.69
67015;BME280;1033;52.560;13.374;2023-05-21T00:06:24;101486.66;;;14.61;94.68
67015;BME280;1033;52.560;13.374;2023-05-21T00:08:54;101486.81;;;14.73;94.55
67015;BME280;1033;52.560;13.374;2023-05-21T00:11:23;101484.31;;;14.65;95.37
67015;BME280;1033;52.560;13.374;2023-05-21T00:13:52;101477.38;;;14.69;94.99
67015;BME280;1033;52.560;13.374;2023-05-21T00:16:21;101483.47;;;14.64;95.50
67015;BME280;1033;52.560;13.374;2023-05-21T00:18:51;101482.66;;;14.64;95.77
67015;BME280;1033;52.560;13.374;2023-05-21T00:21:21;101471.75;;;14.64;96.27
67015;BME280;1033;52.560;13.374;2023-05-21T00:23:54;101477.78;;;14.72;95.62
67015;BME280;1033;52.560;13.374;2023-05-21T00:26:23;101478.63;;;14.79;94.99
67015;BME280;1033;52.560;13.374;2023-05-21T00:28:56;101468.97;;;14.77;94.85
67015;BME280;1033;52.560;13.374;2023-05-21T00:31:25;101470.66;;;14.78;94.99
67015;BME280;1033;52.560;13.374;2023-05-21T00:33:54;101465.00;;;14.79;95.37
67015;BME280;1033;52.560;13.374;2023-05-21T00:36:23;101462.47;;;14.78;95.54
67015;BME280;1033;52.560;13.374;2023-05-21T00:38:54;101464.53;;;14.83;95.41
67015;BME280;1033;52.560;13.374;2023-05-21T00:41:23;101459.09;;;14.83;95.35
67015;BME280;1033;52.560;13.374;2023-05-21T00:43:52;101465.00;;;14.73;95.50
67015;BME280;1033;52.560;13.374;2023-05-21T00:46:22;101467.53;;;14.74;95.81
67015;BME280;1033;52.560;13.374;2023-05-21T00:48:52;101460.78;;;14.77;95.95
67015;BME280;1033;52.560;13.374;2023-05-21T00:51:21;101456.84;;;14.73;96.03
67015;BME280;1033;52.560;13.374;2023-05-21T00:53:50;101453.03;;;14.81;95.76
67015;BME280;1033;52.560;13.374;2023-05-21T00:56:23;101455.78;;;14.74;95.99
67015;BME280;1033;52.560;13.374;2023-05-21T00:58:54;101446.56;;;14.75;96.37
67015;BME280;1033;52.560;13.374;2023-05-21T01:01:24;101448.63;;;14.79;95.99
67015;BME280;1033;52.560;13.374;2023-05-21T01:03:54;101449.34;;;14.62;96.61
67015;BME280;1033;52.560;13.374;2023-05-21T01:06:24;101445.16;;;14.66;97.32
67015;BME280;1033;52.560;13.374;2023-05-21T01:08:56;101440.34;;;14.55;97.65
67015;BME280;1033;52.560;13.374;2023-05-21T01:11:36;101442.69;;;14.45;98.83
67015;BME280;1033;52.560;13.374;2023-05-21T01:14:06;101443.31;;;14.47;98.79
67015;BME280;1033;52.560;13.374;2023-05-21T01:16:37;101439.34;;;14.43;99.16
67015;BME280;1033;52.560;13.374;2023-05-21T01:19:09;101435.78;;;14.29;99.13
67015;BME280;1033;52.560;13.374;2023-05-21T01:21:43;101429.53;;;14.15;100.00
67015;BME280;1033;52.560;13.374;2023-05-21T01:24:14;101439.97;;;14.31;100.00
67015;BME280;1033;52.560;13.374;2023-05-21T01:26:43;101441.66;;;14.32;100.00
67015;BME280;1033;52.560;13.374;2023-05-21T01:29:13;101432.22;;;14.28;100.00
67015;BME280;1033;52.560;13.374;2023-05-21T01:31:51;101430.56;;;14.27;100.00
67015;BME280;1033;52.560;13.374;2023-05-21T01:34:31;101428.69;;;14.21;100.00
67015;BME280;1033;52.560;13.374;2023-05-21T01:37:09;101423.44;;;14.26;100.00
67015;BME280;1033;52.560;13.374;2023-05-21T01:39:45;101433.69;;;14.31;100.00
67015;BME280;1033;52.560;13.374;2023-05-21T01:42:18;101441.66;;;14.32;100.00
67015;BME280;1033;52.560;13.374;2023-05-21T01:44:47;101431.81;;;14.38;100.00
67015;BME280;1033;52.560;13.374;2023-05-21T01:47:19;101441.88;;;14.24;100.00
67015;BME280;1033;52.560;13.374;2023-05-21T01:49:52;101438.16;;;14.12;100.00
67015;BME280;1033;52.560;13.374;2023-05-21T01:52:21;101428.69;;;14.15;100.00
67015;BME280;1033;52.560;13.374;2023-05-21T01:54:51;101429.94;;;14.19;100.00
67015;BME280;1033;52.560;13.374;2023-05-21T01:57:20;101428.28;;;14.18;100.00
67015;BME280;1033;52.560;13.374;2023-05-21T01:59:50;101420.97;;;14.18;100.00
67015;BME280;1033;52.560;13.374;2023-05-21T02:02:20;101421.16;;;14.17;100.00
67015;BME280;1033;52.560;13.374;2023-05-21T02:04:50;101421.56;;;14.14;100.00
67015;BME280;1033;52.560;13.374;2023-05-21T02:07:18;101424.53;;;14.12;100.00
67015;BME280;1033;52.560;13.374;2023-05-21T02:09:50;101416.97;;;14.14;100.00
67015;BME280;1033;52.560;13.374;2023-05-21T02:12:19;101418.44;;;14.17;100.00
67015;BME280;1033;52.560;13.374;2023-05-21T02:14:48;101419.94;;;14.13;100.00
67015;BME280;1033;52.560;13.374;2023-05-21T02:17:17;101415.75;;;14.04;100.00
67015;BME280;1033;52.560;13.374;2023-05-21T02:19:46;101420.56;;;13.95;100.00
67015;BME280;1033;52.560;13.374;2023-05-21T02:22:15;101418.09;;;13.93;100.00
67015;BME280;1033;52.560;13.374;2023-05-21T02:24:45;101419.31;;;13.91;100.00
67015;BME280;1033;52.560;13.374;2023-05-21T02:27:15;101411.16;;;13.91;100.00
67015;BME280;1033;52.560;13.374;2023-05-21T02:29:44;101414.09;;;13.96;100.00
67015;BME280;1033;52.560;13.374;2023-05-21T02:32:13;101417.03;;;13.88;100.00
67015;BME280;1033;52.560;13.374;2023-05-21T02:34:43;101409.47;;;13.97;100.00
67015;BME280;1033;52.560;13.374;2023-05-21T02:37:14;101406.97;;;14.02;100.00
67015;BME280;1033;52.560;13.374;2023-05-21T02:39:44;101406.34;;;13.93;100.00
67015;BME280;1033;52.560;13.374;2023-05-21T02:42:15;101402.41;;;13.89;100.00
67015;BME280;1033;52.560;13.374;2023-05-21T02:44:43;101401.13;;;13.85;100.00
67015;BME280;1033;52.560;13.374;2023-05-21T02:47:12;101404.88;;;13.90;100.00
67015;BME280;1033;52.560;13.374;2023-05-21T02:49:41;101404.88;;;13.90;100.00
67015;BME280;1033;52.560;13.374;2023-05-21T02:52:10;101409.47;;;14.03;100.00
67015;BME280;1033;52.560;13.374;2023-05-21T02:54:40;101402.38;;;14.02;100.00
67015;BME280;1033;52.560;13.374;2023-05-21T02:57:09;101399.44;;;14.04;100.00
67015;BME280;1033;52.560;13.374;2023-05-21T02:59:40;101399.44;;;13.97;100.00
67015;BME280;1033;52.560;13.374;2023-05-21T03:02:09;101389.59;;;13.96;100.00
67015;BME280;1033;52.560;13.374;2023-05-21T03:04:38;101397.75;;;14.03;100.00
67015;BME280;1033;52.560;13.374;2023-05-21T03:07:13;101393.75;;;14.05;100.00
67015;BME280;1033;52.560;13.374;2023-05-21T03:09:45;101386.63;;;14.11;100.00
67015;BME280;1033;52.560;13.374;2023-05-21T03:12:14;101392.28;;;14.16;100.00
67015;BME280;1033;52.560;13.374;2023-05-21T03:14:44;101392.72;;;14.13;100.00
67015;BME280;1033;52.560;13.374;2023-05-21T03:17:13;101386.41;;;14.19;100.00
67015;BME280;1033;52.560;13.374;2023-05-21T03:19:44;101395.59;;;14.24;100.00
67015;BME280;1033;52.560;13.374;2023-05-21T03:22:12;101392.47;;;14.21;100.00
67015;BME280;1033;52.560;13.374;2023-05-21T03:24:42;101389.75;;;14.27;100.00
67015;BME280;1033;52.560;13.374;2023-05-21T03:27:12;101385.09;;;14.34;100.00
67015;BME280;1033;52.560;13.374;2023-05-21T03:29:44;101395.59;;;14.38;100.00
67015;BME280;1033;52.560;13.374;2023-05-21T03:32:13;101392.63;;;14.46;100.00
67015;BME280;1033;52.560;13.374;2023-05-21T03:34:43;101389.44;;;14.55;100.00
67015;BME280;1033;52.560;13.374;2023-05-21T03:37:12;101393.56;;;14.71;100.00
67015;BME280;1033;52.560;13.374;2023-05-21T03:39:42;101397.06;;;14.85;100.00
67015;BME280;1033;52.560;13.374;2023-05-21T03:42:11;101407.22;;;15.02;100.00
67015;BME280;1033;52.560;13.374;2023-05-21T03:44:49;101406.25;;;15.21;100.00
67015;BME280;1033;52.560;13.374;2023-05-21T03:47:44;101404.22;;;15.42;100.00
67015;BME280;1033;52.560;13.374;2023-05-21T03:50:15;101401.75;;;15.65;97.75
67015;BME280;1033;52.560;13.374;2023-05-21T03:52:44;101403.13;;;16.17;94.95
67015;BME280;1033;52.560;13.374;2023-05-21T03:55:14;101413.06;;;16.30;92.42
67015;BME280;1033;52.560;13.374;2023-05-21T03:57:43;101402.53;;;16.33;91.58
67015;BME280;1033;52.560;13.374;2023-05-21T04:00:14;101403.56;;;16.32;91.83
67015;BME280;1033;52.560;13.374;2023-05-21T04:02:43;101405.47;;;16.32;91.49
67015;BME280;1033;52.560;13.374;2023-05-21T04:05:15;101400.78;;;16.39;90.86
67015;BME280;1033;52.560;13.374;2023-05-21T04:07:44;101413.22;;;16.35;90.54
67015;BME280;1033;52.560;13.374;2023-05-21T04:10:14;101409.72;;;16.28;90.85
67015;BME280;1033;52.560;13.374;2023-05-21T04:12:43;101416.13;;;16.40;91.33
67015;BME280;1033;52.560;13.374;2023-05-21T04:15:14;101409.47;;;17.14;87.68
67015;BME280;1033;52.560;13.374;2023-05-21T04:17:45;101416.66;;;17.79;83.10
67015;BME280;1033;52.560;13.374;2023-05-21T04:20:14;101420.06;;;18.56;78.67
67015;BME280;1033;52.560;13.374;2023-05-21T04:22:44;101414.63;;;18.33;78.37
67015;BME280;1033;52.560;13.374;2023-05-21T04:25:16;101423.06;;;18.55;77.83
67015;BME280;1033;52.560;13.374;2023-05-21T04:27:46;101432.25;;;18.89;75.85
67015;BME280;1033;52.560;13.374;2023-05-21T04:30:21;101434.63;;;18.97;74.71
67015;BME280;1033;52.560;13.374;2023-05-21T04:32:50;101422.75;;;19.08;74.57
67015;BME280;1033;52.560;13.374;2023-05-21T04:35:21;101426.41;;;18.57;76.24
67015;BME280;1033;52.560;13.374;2023-05-21T04:37:50;101425.19;;;18.93;75.62
67015;BME280;1033;52.560;13.374;2023-05-21T04:40:21;101430.13;;;18.79;75.91
67015;BME280;1033;52.560;13.374;2023-05-21T04:42:51;101432.66;;;19.71;72.80
67015;BME280;1033;52.560;13.374;2023-05-21T04:45:24;101426.28;;;19.82;71.14
67015;BME280;1033;52.560;13.374;2023-05-21T04:47:53;101440.22;;;20.30;69.74
67015;BME280;1033;52.560;13.374;2023-05-21T04:50:28;101429.38;;;20.84;66.97
67015;BME280;1033;52.560;13.374;2023-05-21T04:52:58;101426.78;;;21.21;65.44
67015;BME280;1033;52.560;13.374;2023-05-21T04:55:27;101438.00;;;21.41;64.11
67015;BME280;1033;52.560;13.374;2023-05-21T04:58:00;101430.59;;;21.79;63.12
67015;BME280;1033;52.560;13.374;2023-05-21T05:00:31;101431.28;;;21.32;64.24
67015;BME280;1033;52.560;13.374;2023-05-21T05:03:00;101418.97;;;21.40;64.53
67015;BME280;1033;52.560;13.374;2023-05-21T05:05:29;101424.16;;;21.36;64.67
67015;BME280;1033;52.560;13.374;2023-05-21T05:07:59;101418.47;;;21.80;63.09
67015;BME280;1033;52.560;13.374;2023-05-21T05:10:28;101418.31;;;21.91;62.61
67015;BME280;1033;52.560;13.374;2023-05-21T05:12:57;101419.59;;;22.16;61.84
67015;BME280;1033;52.560;13.374;2023-05-21T05:15:27;101423.31;;;21.94;62.20
67015;BME280;1033;52.560;13.374;2023-05-21T05:17:58;101428.75;;;21.89;62.98
67015;BME280;1033;52.560;13.374;2023-05-21T05:20:28;101434.59;;;21.93;62.54
67015;BME280;1033;52.560;13.374;2023-05-21T05:22:57;101427.28;;;21.45;64.45
67015;BME280;1033;52.560;13.374;2023-05-21T05:25:26;101425.38;;;21.18;65.54
67015;BME280;1033;52.560;13.374;2023-05-21T05:27:55;101430.84;;;20.70;67.08
67015;BME280;1033;52.560;13.374;2023-05-21T05:30:24;101437.72;;;20.12;70.15
67015;BME280;1033;52.560;13.374;2023-05-21T05:32:58;101432.84;;;19.81;71.63
67015;BME280;1033;52.560;13.374;2023-05-21T05:35:28;101425.84;;;19.57;72.80
67015;BME280;1033;52.560;13.374;2023-05-21T05:37:57;101431.03;;;19.41;73.71
67015;BME280;1033;52.560;13.374;2023-05-21T05:40:26;101429.13;;;19.42;74.30
67015;BME280;1033;52.560;13.374;2023-05-21T05:42:55;101425.47;;;19.36;74.20
67015;BME280;1033;52.560;13.374;2023-05-21T05:45:24;101433.97;;;19.35;74.62
67015;BME280;1033;52.560;13.374;2023-05-21T05:47:56;101430.13;;;19.36;74.66
67015;BME280;1033;52.560;13.374;2023-05-21T05:50:26;101425.13;;;19.33;74.41
67015;BME280;1033;52.560;13.374;2023-05-21T05:52:56;101423.31;;;19.38;74.75
67015;BME280;1033;52.560;13.374;2023-05-21T05:55:25;101431.44;;;19.45;74.43
67015;BME280;1033;52.560;13.374;2023-05-21T05:57:54;101421.16;;;19.40;74.52
67015;BME280;1033;52.560;13.374;2023-05-21T06:00:23;101421.63;;;19.37;74.84
67015;BME280;1033;52.560;13.374;2023-05-21T06:02:53;101430.69;;;19.49;74.66
67015;BME280;1033;52.560;13.374;2023-05-21T06:05:22;101424.13;;;19.50;74.30
67015;BME280;1033;52.560;13.374;2023-05-21T06:07:53;101416.50;;;19.41;74.35
67015;BME280;1033;52.560;13.374;2023-05-21T06:10:22;101419.63;;;19.44;74.12
67015;BME280;1033;52.560;13.374;2023-05-21T06:13:05;101418.19;;;19.59;73.82
67015;BME280;1033;52.560;13.374;2023-05-21T06:15:34;101425.34;;;19.93;72.38
67015;BME280;1033;52.560;13.374;2023-05-21T06:18:04;101414.44;;;19.98;71.81
67015;BME280;1033;52.560;13.374;2023-05-21T06:20:33;101417.97;;;20.15;70.75
67015;BME280;1033;52.560;13.374;2023-05-21T06:23:04;101410.31;;;20.34;70.47
67015;BME280;1033;52.560;13.374;2023-05-21T06:25:35;101403.63;;;20.47;70.03
67015;BME280;1033;52.560;13.374;2023-05-21T06:28:05;101404.94;;;20.44;69.15
67015;BME280;1033;52.560;13.374;2023-05-21T06:30:34;101406.09;;;20.48;69.16
67015;BME280;1033;52.560;13.374;2023-05-21T06:33:03;101404.03;;;20.38;69.65
67015;BME280;1033;52.560;13.374;2023-05-21T06:35:33;101412.13;;;20.28;68.65
67015;BME280;1033;52.560;13.374;2023-05-21T06:38:05;101406.06;;;20.26;69.34
67015;BME280;1033;52.560;13.374;2023-05-21T06:40:34;101407.97;;;20.43;68.83
67015;BME280;1033;52.560;13.374;2023-05-21T06:43:04;101409.25;;;20.57;68.24
67015;BME280;1033;52.560;13.374;2023-05-21T06:45:36;101407.50;;;20.51;68.07
67015;BME280;1033;52.560;13.374;2023-05-21T06:48:32;101411.22;;;20.61;67.83
67015;BME280;1033;52.560;13.374;2023-05-21T06:51:01;101404.44;;;20.69;67.09
67015;BME280;1033;52.560;13.374;2023-05-21T06:53:31;101410.13;;;20.84;66.87
67015;BME280;1033;52.560;13.374;2023-05-21T06:56:00;101408.84;;;20.70;66.67
67015;BME280;1033;52.560;13.374;2023-05-21T06:58:38;101402.50;;;20.69;66.99
67015;BME280;1033;52.560;13.374;2023-05-21T07:01:07;101402.09;;;21.04;66.35
67015;BME280;1033;52.560;13.374;2023-05-21T07:03:37;101401.41;;;21.14;65.23
67015;BME280;1033;52.560;13.374;2023-05-21T07:06:07;101396.88;;;21.30;65.16
67015;BME280;1033;52.560;13.374;2023-05-21T07:08:38;101398.16;;;21.22;64.72
67015;BME280;1033;52.560;13.374;2023-05-21T07:11:07;101403.47;;;21.07;64.83
67015;BME280;1033;52.560;13.374;2023-05-21T07:13:36;101396.88;;;21.08;65.30
67015;BME280;1033;52.560;13.374;2023-05-21T07:16:06;101406.41;;;20.95;65.46
67015;BME280;1033;52.560;13.374;2023-05-21T07:18:38;101403.31;;;21.13;65.72
67015;BME280;1033;52.560;13.374;2023-05-21T07:21:08;101400.66;;;21.55;63.81
67015;BME280;1033;52.560;13.374;2023-05-21T07:23:38;101406.50;;;21.59;62.97
67015;BME280;1033;52.560;13.374;2023-05-21T07:26:08;101405.72;;;21.37;63.59
67015;BME280;1033;52.560;13.374;2023-05-21T07:28:39;101407.72;;;21.73;63.21
67015;BME280;1033;52.560;13.374;2023-05-21T07:31:08;101401.66;;;22.13;60.88
67015;BME280;1033;52.560;13.374;2023-05-21T07:33:43;101402.50;;;22.14;60.99
67015;BME280;1033;52.560;13.374;2023-05-21T07:36:13;101396.09;;;22.55;60.26
67015;BME280;1033;52.560;13.374;2023-05-21T07:38:44;101398.44;;;22.83;59.43
67015;BME280;1033;52.560;13.374;2023-05-21T07:41:13;101408.72;;;23.08;58.66
67015;BME280;1033;52.560;13.374;2023-05-21T07:43:45;101403.00;;;23.65;56.49
67015;BME280;1033;52.560;13.374;2023-05-21T07:46:15;101392.75;;;23.51;56.26
67015;BME280;1033;52.560;13.374;2023-05-21T07:48:45;101400.72;;;23.27;57.28
67015;BME280;1033;52.560;13.374;2023-05-21T07:51:15;101392.47;;;23.32;56.47
67015;BME280;1033;52.560;13.374;2023-05-21T07:53:45;101392.50;;;23.52;56.04
67015;BME280;1033;52.560;13.374;2023-05-21T07:56:18;101392.50;;;23.52;55.69
67015;BME280;1033;52.560;13.374;2023-05-21T07:58:47;101386.41;;;23.65;55.64
67015;BME280;1033;52.560;13.374;2023-05-21T08:01:17;101390.84;;;23.71;55.30
67015;BME280;1033;52.560;13.374;2023-05-21T08:03:47;101393.31;;;23.73;54.98
67015;BME280;1033;52.560;13.374;2023-05-21T08:06:16;101395.78;;;23.74;54.85
67015;BME280;1033;52.560;13.374;2023-05-21T08:08:47;101392.19;;;23.74;54.67
67015;BME280;1033;52.560;13.374;2023-05-21T08:11:16;101398.56;;;23.79;54.50
67015;BME280;1033;52.560;13.374;2023-05-21T08:13:45;101386.66;;;23.89;54.54
67015;BME280;1033;52.560;13.374;2023-05-21T08:16:15;101395.19;;;24.18;53.58
67015;BME280;1033;52.560;13.374;2023-05-21T08:18:44;101389.69;;;23.98;54.05
67015;BME280;1033;52.560;13.374;2023-05-21T08:21:14;101388.28;;;24.05;53.65
67015;BME280;1033;52.560;13.374;2023-05-21T08:23:43;101393.50;;;24.32;53.12
67015;BME280;1033;52.560;13.374;2023-05-21T08:26:14;101393.00;;;24.05;53.28
67015;BME280;1033;52.560;13.374;2023-05-21T08:28:44;101386.06;;;23.97;53.07
67015;BME280;1033;52.560;13.374;2023-05-21T08:31:13;101388.56;;;24.09;53.26
67015;BME280;1033;52.560;13.374;2023-05-21T08:33:49;101380.66;;;24.61;51.87
67015;BME280;1033;52.560;13.374;2023-05-21T08:36:24;101383.38;;;24.72;51.40
67015;BME280;1033;52.560;13.374;2023-05-21T08:38:59;101381.75;;;24.60;51.94
67015;BME280;1033;52.560;13.374;2023-05-21T08:41:34;101381.69;;;24.71;50.81
67015;BME280;1033;52.560;13.374;2023-05-21T08:44:07;101386.09;;;24.77;50.71
67015;BME280;1033;52.560;13.374;2023-05-21T08:46:40;101384.44;;;24.76;51.02
67015;BME280;1033;52.560;13.374;2023-05-21T08:49:13;101384.41;;;24.86;50.65
67015;BME280;1033;52.560;13.374;2023-05-21T08:51:44;101384.69;;;24.89;50.20
67015;BME280;1033;52.560;13.374;2023-05-21T08:54:14;101380.53;;;24.92;49.76
67015;BME280;1033;52.560;13.374;2023-05-21T08:56:46;101394.84;;;25.04;50.38
67015;BME280;1033;52.560;13.374;2023-05-21T08:59:17;101384.44;;;24.76;50.46
67015;BME280;1033;52.560;13.374;2023-05-21T09:01:47;101384.19;;;24.72;50.54
67015;BME280;1033;52.560;13.374;2023-05-21T09:04:23;101384.97;;;24.88;50.19
67015;BME280;1033;52.560;13.374;2023-05-21T09:06:54;101386.75;;;24.63;50.43
67015;BME280;1033;52.560;13.374;2023-05-21T09:09:48;101382.94;;;24.49;50.80
67015;BME280;1033;52.560;13.374;2023-05-21T09:12:22;101382.47;;;24.86;50.45
67015;BME280;1033;52.560;13.374;2023-05-21T09:14:51;101391.13;;;24.64;50.25
67015;BME280;1033;52.560;13.374;2023-05-21T09:17:26;101387.34;;;24.45;50.82
67015;BME280;1033;52.560;13.374;2023-05-21T09:20:07;101391.09;;;24.75;49.38
67015;BME280;1033;52.560;13.374;2023-05-21T09:22:43;101381.16;;;24.74;49.55
67015;BME280;1033;52.560;13.374;2023-05-21T09:25:14;101383.84;;;24.89;48.89
67015;BME280;1033;52.560;13.374;2023-05-21T09:27:45;101387.91;;;25.06;48.75
67015;BME280;1033;52.560;13.374;2023-05-21T09:30:15;101384.09;;;24.97;48.78
67015;BME280;1033;52.560;13.374;2023-05-21T09:32:45;101382.66;;;25.05;48.84
67015;BME280;1033;52.560;13.374;2023-05-21T09:35:20;101373.50;;;25.43;47.52
67015;BME280;1033;52.560;13.374;2023-05-21T09:37:50;101368.50;;;25.45;48.14
67015;BME280;1033;52.560;13.374;2023-05-21T09:40:20;101359.34;;;25.79;46.67
67015;BME280;1033;52.560;13.374;2023-05-21T09:42:52;101369.28;;;25.56;47.22
67015;BME280;1033;52.560;13.374;2023-05-21T09:45:23;101373.03;;;25.70;47.32
67015;BME280;1033;52.560;13.374;2023-05-21T09:47:55;101373.34;;;26.21;46.36
67015;BME280;1033;52.560;13.374;2023-05-21T09:50:26;101366.41;;;26.19;45.72
67015;BME280;1033;52.560;13.374;2023-05-21T09:52:55;101366.47;;;26.14;46.26
67015;BME280;1033;52.560;13.374;2023-05-21T09:55:27;101370.44;;;25.79;46.36
67015;BME280;1033;52.560;13.374;2023-05-21T09:57:57;101366.47;;;25.90;47.29
67015;BME280;1033;52.560;13.374;2023-05-21T10:00:27;101363.38;;;25.91;46.30
67015;BME280;1033;52.560;13.374;2023-05-21T10:02:57;101364.44;;;25.95;46.26
67015;BME280;1033;52.560;13.374;2023-05-21T10:05:29;101360.16;;;26.08;46.60
67015;BME280;1033;52.560;13.374;2023-05-21T10:08:00;101351.09;;;25.74;46.94
67015;BME280;1033;52.560;13.374;2023-05-21T10:10:30;101350.13;;;25.60;46.68
67015;BME280;1033;52.560;13.374;2023-05-21T10:13:04;101348.38;;;25.69;46.95
67015;BME280;1033;52.560;13.374;2023-05-21T10:15:36;101341.06;;;25.78;46.34
67015;BME280;1033;52.560;13.374;2023-05-21T10:18:06;101341.50;;;25.90;46.28
67015;BME280;1033;52.560;13.374;2023-05-21T10:20:37;101337.53;;;26.20;45.82
67015;BME280;1033;52.560;13.374;2023-05-21T10:23:06;101333.50;;;26.55;44.76
67015;BME280;1033;52.560;13.374;2023-05-21T10:25:36;101338.09;;;26.46;45.08
67015;BME280;1033;52.560;13.374;2023-05-21T10:28:06;101332.72;;;26.30;45.06
67015;BME280;1033;52.560;13.374;2023-05-21T10:30:35;101337.53;;;26.44;45.07
67015;BME280;1033;52.560;13.374;2023-05-21T10:33:06;101331.97;;;26.67;45.11
67015;BME280;1033;52.560;13.374;2023-05-21T10:35:37;101329.41;;;27.08;44.06
67015;BME280;1033;52.560;13.374;2023-05-21T10:38:07;101335.81;;;26.90;44.39
67015;BME280;1033;52.560;13.374;2023-05-21T10:40:37;101332.16;;;26.95;44.33
67015;BME280;1033;52.560;13.374;2023-05-21T10:46:41;101319.28;;;26.99;44.19
67015;BME280;1033;52.560;13.374;2023-05-21T10:52:30;101318.69;;;27.20;43.29
67015;BME280;1033;52.560;13.374;2023-05-21T10:55:20;101326.81;;;26.98;43.43
67015;BME280;1033;52.560;13.374;2023-05-21T10:58:20;101309.97;;;27.08;43.47
67015;BME280;1033;52.560;13.374;2023-05-21T11:00:53;101317.88;;;27.01;43.83
67015;BME280;1033;52.560;13.374;2023-05-21T11:03:23;101313.94;;;26.83;43.85
67015;BME280;1033;52.560;13.374;2023-05-21T11:05:54;101313.91;;;26.89;43.60
67015;BME280;1033;52.560;13.374;2023-05-21T11:08:25;101303.13;;;26.82;43.67
67015;BME280;1033;52.560;13.374;2023-05-21T11:10:55;101300.97;;;26.79;43.52
67015;BME280;1033;52.560;13.374;2023-05-21T11:13:26;101305.69;;;26.60;43.95
67015;BME280;1033;52.560;13.374;2023-05-21T11:16:13;101310.56;;;26.68;43.30
67015;BME280;1033;52.560;13.374;2023-05-21T11:19:01;101311.47;;;26.82;42.40
67015;BME280;1033;52.560;13.374;2023-05-21T11:21:32;101295.47;;;26.74;42.68
67015;BME280;1033;52.560;13.374;2023-05-21T11:24:04;101300.94;;;27.16;42.29
67015;BME280;1033;52.560;13.374;2023-05-21T11:27:02;101302.81;;;27.21;42.72
67015;BME280;1033;52.560;13.374;2023-05-21T11:29:42;101297.72;;;27.42;42.22
67015;BME280;1033;52.560;13.374;2023-05-21T11:32:14;101308.63;;;27.57;41.14
67015;BME280;1033;52.560;13.374;2023-05-21T11:34:45;101296.69;;;27.38;41.14
67015;BME280;1033;52.560;13.374;2023-05-21T11:37:25;101291.88;;;27.43;40.25
67015;BME280;1033;52.560;13.374;2023-05-21T11:39:57;101287.66;;;27.46;40.67
67015;BME280;1033;52.560;13.374;2023-05-21T11:42:31;101299.38;;;27.43;40.18
67015;BME280;1033;52.560;13.374;2023-05-21T11:45:01;101286.81;;;27.64;39.52
67015;BME280;1033;52.560;13.374;2023-05-21T11:47:35;101285.56;;;27.70;39.60
67015;BME280;1033;52.560;13.374;2023-05-21T11:50:10;101292.75;;;27.57;39.53
67015;BME280;1033;52.560;13.374;2023-05-21T11:52:40;101291.66;;;27.72;39.56
67015;BME280;1033;52.560;13.374;2023-05-21T11:55:10;101287.41;;;27.75;38.90
67015;BME280;1033;52.560;13.374;2023-05-21T11:57:41;101278.28;;;27.42;39.58
67015;BME280;1033;52.560;13.374;2023-05-21T12:00:15;101286.28;;;27.76;39.03
67015;BME280;1033;52.560;13.374;2023-05-21T12:02:48;101280.97;;;27.93;38.49
67015;BME280;1033;52.560;13.374;2023-05-21T12:05:18;101282.19;;;28.00;38.11
67015;BME280;1033;52.560;13.374;2023-05-21T12:07:48;101283.13;;;28.37;37.25
67015;BME280;1033;52.560;13.374;2023-05-21T12:10:20;101279.44;;;28.64;36.95
67015;BME280;1033;52.560;13.374;2023-05-21T12:12:51;101290.00;;;28.39;37.12
67015;BME280;1033;52.560;13.374;2023-05-21T12:15:25;101280.78;;;28.17;37.77
67015;BME280;1033;52.560;13.374;2023-05-21T12:17:56;101267.94;;;28.43;37.39
67015;BME280;1033;52.560;13.374;2023-05-21T12:20:26;101271.78;;;28.69;36.72
67015;BME280;1033;52.560;13.374;2023-05-21T12:22:56;101276.56;;;28.55;36.85
67015;BME280;1033;52.560;13.374;2023-05-21T12:25:28;101269.81;;;28.34;37.15
67015;BME280;1033;52.560;13.374;2023-05-21T12:27:58;101280.13;;;28.33;36.88
67015;BME280;1033;52.560;13.374;2023-05-21T12:30:29;101275.81;;;28.14;37.20
67015;BME280;1033;52.560;13.374;2023-05-21T12:33:00;101266.84;;;28.17;37.44
67015;BME280;1033;52.560;13.374;2023-05-21T12:35:31;101275.22;;;28.17;37.48
67015;BME280;1033;52.560;13.374;2023-05-21T12:38:00;101278.97;;;27.93;37.72
67015;BME280;1033;52.560;13.374;2023-05-21T12:40:37;101271.59;;;28.02;37.13
67015;BME280;1033;52.560;13.374;2023-05-21T12:43:07;101273.75;;;27.78;37.33
67015;BME280;1033;52.560;13.374;2023-05-21T12:45:37;101267.75;;;27.85;37.89
67015;BME280;1033;52.560;13.374;2023-05-21T12:48:09;101260.84;;;28.23;37.30
67015;BME280;1033;52.560;13.374;2023-05-21T12:50:39;101252.31;;;28.20;37.41
67015;BME280;1033;52.560;13.374;2023-05-21T12:53:09;101266.50;;;28.04;37.86
67015;BME280;1033;52.560;13.374;2023-05-21T12:55:39;101250.84;;;28.36;37.17
67015;BME280;1033;52.560;13.374;2023-05-21T12:58:12;101266.09;;;28.38;37.48
67015;BME280;1033;52.560;13.374;2023-05-21T13:00:42;101258.28;;;28.27;37.15
67015;BME280;1033;52.560;13.374;2023-05-21T13:03:13;101262.50;;;27.97;37.59
67015;BME280;1033;52.560;13.374;2023-05-21T13:05:43;101250.44;;;28.29;37.12
67015;BME280;1033;52.560;13.374;2023-05-21T13:08:12;101245.72;;;28.51;37.19
67015;BME280;1033;52.560;13.374;2023-05-21T13:10:43;101250.78;;;28.85;36.96
67015;BME280;1033;52.560;13.374;2023-05-21T13:13:12;101252.63;;;28.32;37.50
67015;BME280;1033;52.560;13.374;2023-05-21T13:15:41;101254.56;;;28.18;37.12